sensor_id;sensor_type;location;lat;lon;timestamp;temperature;humidity
6520;DHT22;3293;51.690;5.982;2023-04-24T00:00:50;10.20;99.90
6520;DHT22;3293;51.690;5.982;2023-04-24T00:05:51;10.20;99.90
6520;DHT22;3293;51.690;5.982;2023-04-24T00:10:51;10.20;99.90
6520;DHT22;3293;51.690;5.982;2023-04-24T00:15:52;10.20;99.90
6520;DHT22;3293;51.690;5.982;2023-04-24T00:20:52;10.20;99.90
6520;DHT22;3293;51.690;5.982;2023-04-24T00:25:52;10.10;99.90
6520;DHT22;3293;51.690;5.982;2023-04-24T00:30:52;10.20;99.90
6520;DHT22;3293;51.690;5.982;2023-04-24T00:35:52;10.20;99.90
6520;DHT22;3293;51.690;5.982;2023-04-24T00:40:52;10.20;99.90
6520;DHT22;3293;51.690;5.982;2023-04-24T00:45:54;10.10;99.90
6520;DHT22;3293;51.690;5.982;2023-04-24T00:50:54;10.10;99.90
6520;DHT22;3293;51.690;5.982;2023-04-24T00:55:55;10.10;99.90
6520;DHT22;3293;51.690;5.982;2023-04-24T01:00:56;10.10;99.90
6520;DHT22;3293;51.690;5.982;2023-04-24T01:05:57;10.10;99.90
6520;DHT22;3293;51.690;5.982;2023-04-24T01:10:58;10.10;99.90
6520;DHT22;3293;51.690;5.982;2023-04-24T01:15:58;10.10;99.90
6520;DHT22;3293;51.690;5.982;2023-04-24T01:20:59;10.00;99.90
6520;DHT22;3293;51.690;5.982;2023-04-24T01:25:59;9.90;99.90
6520;DHT22;3293;51.690;5.982;2023-04-24T01:30:59;9.80;99.90
6520;DHT22;3293;51.690;5.982;2023-04-24T01:35:59;9.80;99.90
6520;DHT22;3293;51.690;5.982;2023-04-24T01:40:59;9.70;99.90
6520;DHT22;3293;51.690;5.982;2023-04-24T01:45:59;9.60;99.90
6520;DHT22;3293;51.690;5.982;2023-04-24T01:50:59;9.60;99.90
6520;DHT22;3293;51.690;5.982;2023-04-24T01:55:59;9.60;99.90
6520;DHT22;3293;51.690;5.982;2023-04-24T02:01:00;9.60;99.90
6520;DHT22;3293;51.690;5.982;2023-04-24T02:06:00;9.50;99.90
6520;DHT22;3293;51.690;5.982;2023-04-24T02:11:00;9.50;99.90
6520;DHT22;3293;51.690;5.982;2023-04-24T02:16:02;9.40;99.90
6520;DHT22;3293;51.690;5.982;2023-04-24T02:21:02;9.40;99.90
6520;DHT22;3293;51.690;5.982;2023-04-24T02:26:02;9.40;99.90
6520;DHT22;3293;51.690;5.982;2023-04-24T02:31:02;9.40;99.90
6520;DHT22;3293;51.690;5.982;2023-04-24T02:36:02;9.30;99.90
6520;DHT22;3293;51.690;5.982;2023-04-24T02:41:02;9.30;99.90
6520;DHT22;3293;51.690;5.982;2023-04-24T02:46:05;9.30;99.90
6520;DHT22;3293;51.690;5.982;2023-04-24T02:51:05;9.30;99.90
6520;DHT22;3293;51.690;5.982;2023-04-24T02:56:06;9.30;99.90
6520;DHT22;3293;51.690;5.982;2023-04-24T03:01:06;9.30;99.90
6520;DHT22;3293;51.690;5.982;2023-04-24T03:06:06;9.30;99.90
6520;DHT22;3293;51.690;5.982;2023-04-24T03:11:07;9.20;99.90
6520;DHT22;3293;51.690;5.982;2023-04-24T03:16:07;9.20;99.90
6520;DHT22;3293;51.690;5.982;2023-04-24T03:21:07;9.20;99.90
6520;DHT22;3293;51.690;5.982;2023-04-24T03:26:07;9.20;99.90
6520;DHT22;3293;51.690;5.982;2023-04-24T03:31:07;9.10;99.90
6520;DHT22;3293;51.690;5.982;2023-04-24T03:36:07;9.10;99.90
6520;DHT22;3293;51.690;5.982;2023-04-24T03:41:07;9.10;99.90
6520;DHT22;3293;51.690;5.982;2023-04-24T03:46:07;9.10;99.90
6520;DHT22;3293;51.690;5.982;2023-04-24T03:51:08;9.10;99.90
6520;DHT22;3293;51.690;5.982;2023-04-24T03:56:09;9.10;99.90
6520;DHT22;3293;51.690;5.982;2023-04-24T04:01:08;9.10;99.90
6520;DHT22;3293;51.690;5.982;2023-04-24T04:06:08;9.20;99.90
6520;DHT22;3293;51.690;5.982;2023-04-24T04:11:10;9.20;99.90
6520;DHT22;3293;51.690;5.982;2023-04-24T04:16:10;9.20;99.90
6520;DHT22;3293;51.690;5.982;2023-04-24T04:21:11;9.20;99.90
6520;DHT22;3293;51.690;5.982;2023-04-24T04:26:11;9.10;99.90
6520;DHT22;3293;51.690;5.982;2023-04-24T04:31:12;9.10;99.90
6520;DHT22;3293;51.690;5.982;2023-04-24T04:36:13;9.20;99.90
6520;DHT22;3293;51.690;5.982;2023-04-24T04:41:13;9.20;99.90
6520;DHT22;3293;51.690;5.982;2023-04-24T04:46:13;9.10;99.90
6520;DHT22;3293;51.690;5.982;2023-04-24T04:51:13;9.10;99.90
6520;DHT22;3293;51.690;5.982;2023-04-24T04:56:14;9.10;99.90
6520;DHT22;3293;51.690;5.982;2023-04-24T05:01:13;9.10;99.90
6520;DHT22;3293;51.690;5.982;2023-04-24T05:06:13;9.10;99.90
6520;DHT22;3293;51.690;5.982;2023-04-24T05:11:13;9.10;99.90
6520;DHT22;3293;51.690;5.982;2023-04-24T05:16:14;9.10;99.90
6520;DHT22;3293;51.690;5.982;2023-04-24T05:21:14;9.10;99.90
6520;DHT22;3293;51.690;5.982;2023-04-24T05:26:15;9.00;99.90
6520;DHT22;3293;51.690;5.982;2023-04-24T05:31:15;9.10;99.90
6520;DHT22;3293;51.690;5.982;2023-04-24T05:36:17;9.00;99.90
6520;DHT22;3293;51.690;5.982;2023-04-24T05:41:17;9.00;99.90
6520;DHT22;3293;51.690;5.982;2023-04-24T05:46:17;9.00;99.90
6520;DHT22;3293;51.690;5.982;2023-04-24T05:51:17;9.00;99.90
6520;DHT22;3293;51.690;5.982;2023-04-24T05:56:17;8.90;99.90
6520;DHT22;3293;51.690;5.982;2023-04-24T06:01:17;8.90;99.90
6520;DHT22;3293;51.690;5.982;2023-04-24T06:06:17;8.90;99.90
6520;DHT22;3293;51.690;5.982;2023-04-24T06:11:18;9.00;99.90
6520;DHT22;3293;51.690;5.982;2023-04-24T06:16:18;9.10;99.90
6520;DHT22;3293;51.690;5.982;2023-04-24T06:21:18;9.20;99.90
6520;DHT22;3293;51.690;5.982;2023-04-24T06:26:18;9.10;99.90
6520;DHT22;3293;51.690;5.982;2023-04-24T06:31:18;9.10;99.90
6520;DHT22;3293;51.690;5.982;2023-04-24T06:36:18;9.10;99.90
6520;DHT22;3293;51.690;5.982;2023-04-24T06:41:18;9.20;99.90
6520;DHT22;3293;51.690;5.982;2023-04-24T06:46:18;9.20;99.90
6520;DHT22;3293;51.690;5.982;2023-04-24T06:51:18;9.20;99.90
6520;DHT22;3293;51.690;5.982;2023-04-24T06:56:19;9.10;99.90
6520;DHT22;3293;51.690;5.982;2023-04-24T07:01:18;9.10;99.90
6520;DHT22;3293;51.690;5.982;2023-04-24T07:06:19;9.20;99.90
6520;DHT22;3293;51.690;5.982;2023-04-24T07:11:22;9.10;99.90
6520;DHT22;3293;51.690;5.982;2023-04-24T07:16:22;9.10;99.90
6520;DHT22;3293;51.690;5.982;2023-04-24T07:21:22;9.20;99.90
6520;DHT22;3293;51.690;5.982;2023-04-24T07:26:22;9.30;99.90
6520;DHT22;3293;51.690;5.982;2023-04-24T07:31:22;9.40;99.90
6520;DHT22;3293;51.690;5.982;2023-04-24T07:36:22;9.30;99.90
6520;DHT22;3293;51.690;5.982;2023-04-24T07:41:23;9.20;99.90
6520;DHT22;3293;51.690;5.982;2023-04-24T07:46:24;9.10;99.90
6520;DHT22;3293;51.690;5.982;2023-04-24T07:51:24;9.10;99.90
6520;DHT22;3293;51.690;5.982;2023-04-24T07:56:27;9.10;99.90
6520;DHT22;3293;51.690;5.982;2023-04-24T08:01:27;9.10;99.90
6520;DHT22;3293;51.690;5.982;2023-04-24T08:06:27;9.20;99.90
6520;DHT22;3293;51.690;5.982;2023-04-24T08:11:30;9.20;99.90
6520;DHT22;3293;51.690;5.982;2023-04-24T08:16:29;9.10;99.90
6520;DHT22;3293;51.690;5.982;2023-04-24T08:21:30;9.00;99.90
6520;DHT22;3293;51.690;5.982;2023-04-24T08:26:30;9.00;99.90
6520;DHT22;3293;51.690;5.982;2023-04-24T08:31:30;9.00;99.90
6520;DHT22;3293;51.690;5.982;2023-04-24T08:36:31;9.00;99.90
6520;DHT22;3293;51.690;5.982;2023-04-24T08:41:32;8.90;99.90
6520;DHT22;3293;51.690;5.982;2023-04-24T08:46:33;8.90;99.90
6520;DHT22;3293;51.690;5.982;2023-04-24T08:51:34;8.90;99.90
6520;DHT22;3293;51.690;5.982;2023-04-24T08:56:37;9.10;99.90
6520;DHT22;3293;51.690;5.982;2023-04-24T09:01:40;9.10;99.90
6520;DHT22;3293;51.690;5.982;2023-04-24T09:06:40;9.10;99.90
6520;DHT22;3293;51.690;5.982;2023-04-24T09:11:40;9.10;99.90
6520;DHT22;3293;51.690;5.982;2023-04-24T09:16:41;9.10;99.90
6520;DHT22;3293;51.690;5.982;2023-04-24T09:21:45;9.00;99.90
6520;DHT22;3293;51.690;5.982;2023-04-24T09:26:46;9.00;99.90
6520;DHT22;3293;51.690;5.982;2023-04-24T09:31:46;9.10;99.90
6520;DHT22;3293;51.690;5.982;2023-04-24T09:36:46;9.30;99.90
6520;DHT22;3293;51.690;5.982;2023-04-24T09:41:54;9.30;99.90
6520;DHT22;3293;51.690;5.982;2023-04-24T09:46:58;9.60;99.90
6520;DHT22;3293;51.690;5.982;2023-04-24T09:52:06;9.80;99.90
6520;DHT22;3293;51.690;5.982;2023-04-24T09:57:08;9.80;99.90
6520;DHT22;3293;51.690;5.982;2023-04-24T10:02:19;9.90;99.90
6520;DHT22;3293;51.690;5.982;2023-04-24T10:07:20;10.10;99.90
6520;DHT22;3293;51.690;5.982;2023-04-24T10:12:21;10.40;99.90
6520;DHT22;3293;51.690;5.982;2023-04-24T10:17:22;10.40;99.90
6520;DHT22;3293;51.690;5.982;2023-04-24T10:22:23;10.60;99.90
6520;DHT22;3293;51.690;5.982;2023-04-24T10:27:26;10.80;99.90
6520;DHT22;3293;51.690;5.982;2023-04-24T10:32:26;10.90;99.90
6520;DHT22;3293;51.690;5.982;2023-04-24T10:37:27;10.90;99.90
6520;DHT22;3293;51.690;5.982;2023-04-24T10:42:27;10.80;99.90
6520;DHT22;3293;51.690;5.982;2023-04-24T10:47:28;10.60;99.90
6520;DHT22;3293;51.690;5.982;2023-04-24T10:52:44;10.30;99.90
6520;DHT22;3293;51.690;5.982;2023-04-24T10:58:02;10.50;99.90
6520;DHT22;3293;51.690;5.982;2023-04-24T11:03:05;10.80;99.90
6520;DHT22;3293;51.690;5.982;2023-04-24T11:08:16;10.80;99.90
6520;DHT22;3293;51.690;5.982;2023-04-24T11:13:22;10.60;99.90
6520;DHT22;3293;51.690;5.982;2023-04-24T11:18:22;10.50;99.90
6520;DHT22;3293;51.690;5.982;2023-04-24T11:23:22;10.50;99.90
6520;DHT22;3293;51.690;5.982;2023-04-24T11:28:24;10.80;99.90
6520;DHT22;3293;51.690;5.982;2023-04-24T11:33:24;11.60;99.90
6520;DHT22;3293;51.690;5.982;2023-04-24T11:38:25;12.20;99.90
6520;DHT22;3293;51.690;5.982;2023-04-24T11:43:25;12.60;99.90
6520;DHT22;3293;51.690;5.982;2023-04-24T11:48:25;12.10;99.90
6520;DHT22;3293;51.690;5.982;2023-04-24T11:53:25;11.40;99.90
6520;DHT22;3293;51.690;5.982;2023-04-24T11:58:25;10.90;99.90
6520;DHT22;3293;51.690;5.982;2023-04-24T12:03:27;10.70;99.90
6520;DHT22;3293;51.690;5.982;2023-04-24T12:08:28;10.60;99.90
6520;DHT22;3293;51.690;5.982;2023-04-24T12:13:28;10.30;99.90
6520;DHT22;3293;51.690;5.982;2023-04-24T12:18:29;10.10;99.90
6520;DHT22;3293;51.690;5.982;2023-04-24T12:23:35;10.10;99.90
6520;DHT22;3293;51.690;5.982;2023-04-24T12:28:37;10.20;99.90
6520;DHT22;3293;51.690;5.982;2023-04-24T12:33:37;10.20;99.90
6520;DHT22;3293;51.690;5.982;2023-04-24T12:38:39;10.40;99.90
6520;DHT22;3293;51.690;5.982;2023-04-24T12:43:52;10.80;99.90
6520;DHT22;3293;51.690;5.982;2023-04-24T12:48:52;11.30;99.90
6520;DHT22;3293;51.690;5.982;2023-04-24T12:53:53;11.90;99.90
6520;DHT22;3293;51.690;5.982;2023-04-24T12:58:52;12.30;99.90
6520;DHT22;3293;51.690;5.982;2023-04-24T13:03:52;12.20;99.90
6520;DHT22;3293;51.690;5.982;2023-04-24T13:08:52;11.70;99.90
6520;DHT22;3293;51.690;5.982;2023-04-24T13:13:54;11.30;99.90
6520;DHT22;3293;51.690;5.982;2023-04-24T13:18:54;11.00;99.90
6520;DHT22;3293;51.690;5.982;2023-04-24T13:23:54;10.50;99.90
6520;DHT22;3293;51.690;5.982;2023-04-24T13:28:54;10.60;99.90
6520;DHT22;3293;51.690;5.982;2023-04-24T13:33:54;11.10;99.90
6520;DHT22;3293;51.690;5.982;2023-04-24T13:38:54;11.50;99.90
6520;DHT22;3293;51.690;5.982;2023-04-24T13:43:54;11.50;99.90
6520;DHT22;3293;51.690;5.982;2023-04-24T13:48:54;11.50;99.90
6520;DHT22;3293;51.690;5.982;2023-04-24T13:53:54;11.80;99.90
6520;DHT22;3293;51.690;5.982;2023-04-24T13:58:55;11.90;99.90
6520;DHT22;3293;51.690;5.982;2023-04-24T14:03:55;12.00;99.90
6520;DHT22;3293;51.690;5.982;2023-04-24T14:08:55;12.00;99.90
6520;DHT22;3293;51.690;5.982;2023-04-24T14:13:55;11.80;99.90
6520;DHT22;3293;51.690;5.982;2023-04-24T14:18:58;11.40;99.90
6520;DHT22;3293;51.690;5.982;2023-04-24T14:23:58;11.20;99.90
6520;DHT22;3293;51.690;5.982;2023-04-24T14:28:58;10.60;99.90
6520;DHT22;3293;51.690;5.982;2023-04-24T14:33:58;10.20;99.90
6520;DHT22;3293;51.690;5.982;2023-04-24T14:38:58;10.00;99.90
6520;DHT22;3293;51.690;5.982;2023-04-24T14:43:58;9.90;99.90
6520;DHT22;3293;51.690;5.982;2023-04-24T14:48:58;10.00;99.90
6520;DHT22;3293;51.690;5.982;2023-04-24T14:53:58;10.30;99.90
6520;DHT22;3293;51.690;5.982;2023-04-24T14:58:58;10.60;99.90
6520;DHT22;3293;51.690;5.982;2023-04-24T15:03:58;10.80;99.90
6520;DHT22;3293;51.690;5.982;2023-04-24T15:08:58;10.80;99.90
6520;DHT22;3293;51.690;5.982;2023-04-24T15:13:58;11.10;99.90
6520;DHT22;3293;51.690;5.982;2023-04-24T15:18:58;11.30;99.90
6520;DHT22;3293;51.690;5.982;2023-04-24T15:23:58;11.40;99.90
6520;DHT22;3293;51.690;5.982;2023-04-24T15:28:58;11.20;99.90
6520;DHT22;3293;51.690;5.982;2023-04-24T15:33:58;10.50;99.90
6520;DHT22;3293;51.690;5.982;2023-04-24T15:38:58;10.00;99.90
6520;DHT22;3293;51.690;5.982;2023-04-24T15:43:58;9.70;99.90
6520;DHT22;3293;51.690;5.982;2023-04-24T15:48:58;9.50;99.90
6520;DHT22;3293;51.690;5.982;2023-04-24T15:53:58;9.60;99.90
6520;DHT22;3293;51.690;5.982;2023-04-24T15:58:58;9.70;99.90
6520;DHT22;3293;51.690;5.982;2023-04-24T16:03:59;9.70;99.90
6520;DHT22;3293;51.690;5.982;2023-04-24T16:08:59;9.60;99.90
6520;DHT22;3293;51.690;5.982;2023-04-24T16:14:00;9.80;99.90
6520;DHT22;3293;51.690;5.982;2023-04-24T16:19:00;10.10;99.90
6520;DHT22;3293;51.690;5.982;2023-04-24T16:24:00;10.30;99.90
6520;DHT22;3293;51.690;5.982;2023-04-24T16:29:00;10.50;99.90
6520;DHT22;3293;51.690;5.982;2023-04-24T16:33:59;10.40;99.90
6520;DHT22;3293;51.690;5.982;2023-04-24T16:38:59;10.30;99.90
6520;DHT22;3293;51.690;5.982;2023-04-24T16:44:03;10.40;99.90
6520;DHT22;3293;51.690;5.982;2023-04-24T16:49:04;10.50;99.90
6520;DHT22;3293;51.690;5.982;2023-04-24T16:54:04;10.40;99.90
6520;DHT22;3293;51.690;5.982;2023-04-24T16:59:04;10.30;99.90
6520;DHT22;3293;51.690;5.982;2023-04-24T17:04:04;10.30;99.90
6520;DHT22;3293;51.690;5.982;2023-04-24T17:09:03;10.20;99.90
6520;DHT22;3293;51.690;5.982;2023-04-24T17:14:04;10.00;99.90
6520;DHT22;3293;51.690;5.982;2023-04-24T17:19:05;9.90;99.90
6520;DHT22;3293;51.690;5.982;2023-04-24T17:24:05;9.90;99.90
6520;DHT22;3293;51.690;5.982;2023-04-24T17:29:05;9.80;99.90
6520;DHT22;3293;51.690;5.982;2023-04-24T17:34:05;9.80;99.90
6520;DHT22;3293;51.690;5.982;2023-04-24T17:39:07;9.90;99.90
6520;DHT22;3293;51.690;5.982;2023-04-24T17:44:08;9.90;99.90
6520;DHT22;3293;51.690;5.982;2023-04-24T17:49:09;9.70;99.90
6520;DHT22;3293;51.690;5.982;2023-04-24T17:54:09;9.50;99.90
6520;DHT22;3293;51.690;5.982;2023-04-24T17:59:09;9.50;99.90
6520;DHT22;3293;51.690;5.982;2023-04-24T18:04:09;9.50;99.90
6520;DHT22;3293;51.690;5.982;2023-04-24T18:09:09;9.40;99.90
6520;DHT22;3293;51.690;5.982;2023-04-24T18:14:10;9.20;99.90
6520;DHT22;3293;51.690;5.982;2023-04-24T18:19:10;9.10;99.90
6520;DHT22;3293;51.690;5.982;2023-04-24T18:24:10;8.90;99.90
6520;DHT22;3293;51.690;5.982;2023-04-24T18:29:10;8.80;99.90
6520;DHT22;3293;51.690;5.982;2023-04-24T18:34:10;8.70;99.90
6520;DHT22;3293;51.690;5.982;2023-04-24T18:39:10;8.60;99.90
6520;DHT22;3293;51.690;5.982;2023-04-24T18:44:10;8.40;99.90
6520;DHT22;3293;51.690;5.982;2023-04-24T18:49:10;8.30;99.90
6520;DHT22;3293;51.690;5.982;2023-04-24T18:54:10;8.20;99.90
6520;DHT22;3293;51.690;5.982;2023-04-24T18:59:10;8.10;99.90
6520;DHT22;3293;51.690;5.982;2023-04-24T19:04:10;8.00;99.90
6520;DHT22;3293;51.690;5.982;2023-04-24T19:09:11;7.90;99.90
6520;DHT22;3293;51.690;5.982;2023-04-24T19:14:11;7.80;99.90
6520;DHT22;3293;51.690;5.982;2023-04-24T19:19:12;7.60;99.90
6520;DHT22;3293;51.690;5.982;2023-04-24T19:24:12;7.60;99.90
6520;DHT22;3293;51.690;5.982;2023-04-24T19:29:12;7.50;99.90
6520;DHT22;3293;51.690;5.982;2023-04-24T19:34:12;7.40;99.90
6520;DHT22;3293;51.690;5.982;2023-04-24T19:39:12;7.30;99.90
6520;DHT22;3293;51.690;5.982;2023-04-24T19:44:12;7.20;99.90
6520;DHT22;3293;51.690;5.982;2023-04-24T19:49:13;7.10;99.90
6520;DHT22;3293;51.690;5.982;2023-04-24T19:54:14;7.00;99.90
6520;DHT22;3293;51.690;5.982;2023-04-24T19:59:14;7.00;99.90
6520;DHT22;3293;51.690;5.982;2023-04-24T20:04:14;7.00;99.90
6520;DHT22;3293;51.690;5.982;2023-04-24T20:09:14;6.90;99.90
6520;DHT22;3293;51.690;5.982;2023-04-24T20:14:14;6.90;99.90
6520;DHT22;3293;51.690;5.982;2023-04-24T20:19:14;6.90;99.90
6520;DHT22;3293;51.690;5.982;2023-04-24T20:24:14;6.80;99.90
6520;DHT22;3293;51.690;5.982;2023-04-24T20:29:14;6.70;99.90
6520;DHT22;3293;51.690;5.982;2023-04-24T20:34:14;6.70;99.90
6520;DHT22;3293;51.690;5.982;2023-04-24T20:39:15;6.70;99.90
6520;DHT22;3293;51.690;5.982;2023-04-24T20:44:15;6.80;99.90
6520;DHT22;3293;51.690;5.982;2023-04-24T20:49:16;6.80;99.90
6520;DHT22;3293;51.690;5.982;2023-04-24T20:54:15;6.60;99.90
6520;DHT22;3293;51.690;5.982;2023-04-24T20:59:15;6.50;99.90
6520;DHT22;3293;51.690;5.982;2023-04-24T21:04:15;6.50;99.90
6520;DHT22;3293;51.690;5.982;2023-04-24T21:09:15;6.40;99.90
6520;DHT22;3293;51.690;5.982;2023-04-24T21:14:15;6.40;99.90
6520;DHT22;3293;51.690;5.982;2023-04-24T21:19:15;6.50;99.90
6520;DHT22;3293;51.690;5.982;2023-04-24T21:24:15;6.50;99.90
6520;DHT22;3293;51.690;5.982;2023-04-24T21:29:16;6.40;99.90
6520;DHT22;3293;51.690;5.982;2023-04-24T21:34:16;6.40;99.90
6520;DHT22;3293;51.690;5.982;2023-04-24T21:39:16;6.30;99.90
6520;DHT22;3293;51.690;5.982;2023-04-24T21:44:17;6.30;99.90
6520;DHT22;3293;51.690;5.982;2023-04-24T21:49:17;6.20;99.90
6520;DHT22;3293;51.690;5.982;2023-04-24T21:54:17;6.10;99.90
6520;DHT22;3293;51.690;5.982;2023-04-24T21:59:18;6.10;99.90
6520;DHT22;3293;51.690;5.982;2023-04-24T22:04:19;6.00;99.90
6520;DHT22;3293;51.690;5.982;2023-04-24T22:09:19;6.00;99.90
6520;DHT22;3293;51.690;5.982;2023-04-24T22:14:20;6.00;99.90
6520;DHT22;3293;51.690;5.982;2023-04-24T22:19:20;5.90;99.90
6520;DHT22;3293;51.690;5.982;2023-04-24T22:24:20;5.80;99.90
6520;DHT22;3293;51.690;5.982;2023-04-24T22:29:20;5.70;99.90
6520;DHT22;3293;51.690;5.982;2023-04-24T22:34:20;5.70;99.90
6520;DHT22;3293;51.690;5.982;2023-04-24T22:39:20;5.70;99.90
6520;DHT22;3293;51.690;5.982;2023-04-24T22:44:20;5.60;99.90
6520;DHT22;3293;51.690;5.982;2023-04-24T22:49:20;5.60;99.90
6520;DHT22;3293;51.690;5.982;2023-04-24T22:54:20;5.50;99.90
6520;DHT22;3293;51.690;5.982;2023-04-24T22:59:20;5.40;99.90
6520;DHT22;3293;51.690;5.982;2023-04-24T23:04:53;5.40;99.90
6520;DHT22;3293;51.690;5.982;2023-04-24T23:09:53;5.30;99.90
6520;DHT22;3293;51.690;5.982;2023-04-24T23:14:53;5.20;99.90
6520;DHT22;3293;51.690;5.982;2023-04-24T23:19:53;5.10;99.90
6520;DHT22;3293;51.690;5.982;2023-04-24T23:24:53;5.20;99.90
6520;DHT22;3293;51.690;5.982;2023-04-24T23:29:53;5.20;99.90
6520;DHT22;3293;51.690;5.982;2023-04-24T23:34:52;5.30;99.90
6520;DHT22;3293;51.690;5.982;2023-04-24T23:39:53;5.20;99.90
6520;DHT22;3293;51.690;5.982;2023-04-24T23:44:53;5.20;99.90
6520;DHT22;3293;51.690;5.982;2023-04-24T23:49:53;5.10;99.90
6520;DHT22;3293;51.690;5.982;2023-04-24T23:54:53;5.20;99.90
6520;DHT22;3293;51.690;5.982;2023-04-24T23:59:53;5.40;99.90
